Time;durP1;ratioP1;P1;durP2;ratioP2;P2;SDS_P1;SDS_P2;PMS_P1;PMS_P2;Temp;Humidity;BMP_temperature;BMP_pressure;BME280_temperature;BME280_humidity;BME280_pressure;Samples;Min_cycle;Max_cycle;Signal;HPM_P1;HPM_P2
2021/09/29 00:01:56;;;;;;;1.10;0.50;;;13.80;99.90;;;;;;4977497;28;20441;-86
2021/09/29 00:04:23;;;;;;;0.40;0.30;;;13.90;99.90;;;;;;4977517;28;20792;-87
2021/09/29 00:06:51;;;;;;;1.53;0.70;;;13.90;99.90;;;;;;4977679;28;20468;-87
2021/09/29 00:09:18;;;;;;;1.17;1.07;;;13.90;99.90;;;;;;4977020;28;20497;-88
2021/09/29 00:11:45;;;;;;;3.43;0.53;;;13.90;99.90;;;;;;4977260;28;20547;-88
2021/09/29 00:14:12;;;;;;;0.70;0.40;;;13.90;99.90;;;;;;4977492;28;20453;-87
2021/09/29 00:16:39;;;;;;;0.50;0.50;;;13.90;99.90;;;;;;4977086;28;20453;-88
2021/09/29 00:19:06;;;;;;;1.13;1.03;;;13.90;99.90;;;;;;4977356;28;20449;-87
2021/09/29 00:21:33;;;;;;;0.70;0.57;;;13.90;99.90;;;;;;4977041;28;20470;-87
2021/09/29 00:24:01;;;;;;;1.17;0.43;;;13.80;99.90;;;;;;4977320;28;20522;-88
2021/09/29 00:26:28;;;;;;;2.23;0.80;;;13.80;99.90;;;;;;4976883;28;20450;-87
2021/09/29 00:28:54;;;;;;;0.80;0.80;;;13.80;99.90;;;;;;4976982;28;20489;-87
2021/09/29 00:31:33;;;;;;;1.67;0.70;;;13.70;99.90;;;;;;4977069;28;20803;-87
2021/09/29 00:34:01;;;;;;;0.60;0.60;;;13.70;99.90;;;;;;4977059;28;20441;-87
2021/09/29 00:36:28;;;;;;;0.83;0.80;;;13.60;99.90;;;;;;4977187;28;20583;-87
2021/09/29 00:38:54;;;;;;;0.90;0.53;;;13.60;99.90;;;;;;4976996;28;20457;-87
2021/09/29 00:41:22;;;;;;;0.87;0.60;;;13.60;99.90;;;;;;4976729;28;20475;-86
2021/09/29 00:43:49;;;;;;;0.60;0.53;;;13.60;99.90;;;;;;4976598;28;20449;-87
2021/09/29 00:46:16;;;;;;;4.07;0.60;;;13.50;99.90;;;;;;4975987;28;20453;-87
2021/09/29 00:48:43;;;;;;;1.00;0.50;;;13.50;99.90;;;;;;4976615;28;20807;-87
2021/09/29 00:51:10;;;;;;;0.50;0.50;;;13.50;99.90;;;;;;4976586;28;20453;-87
2021/09/29 00:53:38;;;;;;;1.23;0.47;;;13.50;99.90;;;;;;4976646;28;20449;-83
2021/09/29 00:56:05;;;;;;;1.60;0.60;;;13.40;99.90;;;;;;4975875;28;20438;-82
2021/09/29 00:58:33;;;;;;;1.13;0.63;;;13.40;99.90;;;;;;4976088;28;20453;-82
2021/09/29 01:01:00;;;;;;;0.50;0.50;;;13.30;99.90;;;;;;4975976;28;20472;-82
2021/09/29 01:03:27;;;;;;;0.90;0.50;;;13.40;99.90;;;;;;4975774;28;20960;-82
2021/09/29 01:05:58;;;;;;;1.40;0.73;;;13.30;99.90;;;;;;4975943;28;20544;-82
2021/09/29 01:08:30;;;;;;;0.80;0.60;;;13.30;99.90;;;;;;4975746;28;20474;-83
2021/09/29 01:11:05;;;;;;;0.50;0.40;;;13.30;99.90;;;;;;4975785;28;20512;-82
2021/09/29 01:13:41;;;;;;;0.60;0.57;;;13.30;99.90;;;;;;4975569;28;20917;-83
2021/09/29 01:16:11;;;;;;;0.43;0.43;;;13.30;99.90;;;;;;4975844;28;20437;-82
2021/09/29 01:18:43;;;;;;;1.10;0.60;;;13.30;99.90;;;;;;4975446;28;20540;-83
2021/09/29 01:21:13;;;;;;;0.70;0.60;;;13.30;99.90;;;;;;4975653;28;20542;-82
2021/09/29 01:23:54;;;;;;;0.60;0.60;;;13.20;99.90;;;;;;4975671;28;20441;-83
2021/09/29 01:26:28;;;;;;;2.00;0.50;;;13.20;99.90;;;;;;4975639;28;20469;-82
2021/09/29 01:29:01;;;;;;;1.67;0.60;;;13.20;99.90;;;;;;4975182;28;20434;-82
2021/09/29 01:31:28;;;;;;;0.60;0.60;;;13.20;99.90;;;;;;4975457;28;20465;-82
2021/09/29 01:33:56;;;;;;;0.90;0.70;;;13.10;99.90;;;;;;4975435;28;20876;-82
2021/09/29 01:36:24;;;;;;;0.80;0.50;;;13.20;99.90;;;;;;4975386;28;20461;-82
2021/09/29 01:38:55;;;;;;;0.60;0.47;;;13.10;99.90;;;;;;4975021;28;20458;-82
2021/09/29 01:41:24;;;;;;;0.77;0.50;;;13.10;99.90;;;;;;4975323;28;20477;-82
2021/09/29 01:43:51;;;;;;;2.60;1.30;;;13.00;99.90;;;;;;4975286;28;20899;-82
2021/09/29 01:46:18;;;;;;;0.70;0.50;;;13.00;99.90;;;;;;4974922;28;20445;-82
2021/09/29 01:48:52;;;;;;;0.80;0.80;;;13.00;99.90;;;;;;4975172;28;20461;-82
2021/09/29 01:51:20;;;;;;;1.00;0.83;;;13.00;99.90;;;;;;4975066;28;20836;-82
2021/09/29 01:53:48;;;;;;;0.70;0.63;;;13.00;99.90;;;;;;4975314;28;20455;-86
2021/09/29 01:56:16;;;;;;;0.80;0.60;;;12.90;99.90;;;;;;4975141;28;20461;-86
2021/09/29 01:58:45;;;;;;;0.70;0.50;;;12.90;99.90;;;;;;4975293;28;20464;-86
2021/09/29 02:01:11;;;;;;;0.60;0.40;;;12.90;99.90;;;;;;4975149;28;20477;-85
2021/09/29 02:03:38;;;;;;;0.40;0.40;;;12.80;99.90;;;;;;4975250;28;20814;-85
2021/09/29 02:06:05;;;;;;;1.07;0.83;;;12.70;99.90;;;;;;4975208;28;20453;-86
2021/09/29 02:08:32;;;;;;;2.50;0.97;;;12.70;99.90;;;;;;4974966;28;20481;-86
2021/09/29 02:10:58;;;;;;;0.80;0.57;;;12.70;99.90;;;;;;4974965;28;20493;-86
2021/09/29 02:13:25;;;;;;;1.03;0.73;;;12.70;99.90;;;;;;4974701;28;20450;-81
2021/09/29 02:15:53;;;;;;;1.80;0.83;;;12.70;99.90;;;;;;4974789;28;20453;-81
2021/09/29 02:18:20;;;;;;;0.83;0.53;;;12.70;99.90;;;;;;4974755;28;20454;-80
2021/09/29 02:20:46;;;;;;;0.50;0.50;;;12.70;99.90;;;;;;4974606;28;20473;-80
2021/09/29 02:23:13;;;;;;;0.60;0.60;;;12.60;99.90;;;;;;4974704;28;20456;-81
2021/09/29 02:25:40;;;;;;;1.30;0.50;;;12.60;99.90;;;;;;4974648;28;20472;-81
2021/09/29 02:28:07;;;;;;;1.40;0.60;;;12.50;99.90;;;;;;4974640;28;20504;-81
2021/09/29 02:30:34;;;;;;;0.70;0.70;;;12.50;99.90;;;;;;4974477;28;20512;-81
2021/09/29 02:33:02;;;;;;;0.70;0.43;;;12.50;99.90;;;;;;4974297;28;20464;-81
2021/09/29 02:35:29;;;;;;;0.97;0.50;;;12.50;99.90;;;;;;4974590;28;20449;-81
2021/09/29 02:37:55;;;;;;;0.50;0.50;;;12.50;99.90;;;;;;4974522;28;20450;-81
2021/09/29 02:40:23;;;;;;;1.23;0.60;;;12.50;99.90;;;;;;4974482;28;20484;-81
2021/09/29 02:42:50;;;;;;;0.57;0.57;;;12.40;99.90;;;;;;4974247;28;20458;-81
2021/09/29 02:45:17;;;;;;;3.37;0.87;;;12.40;99.90;;;;;;4974500;28;20457;-81
2021/09/29 02:47:44;;;;;;;0.90;0.43;;;12.40;99.90;;;;;;4974473;28;20456;-81
2021/09/29 02:50:12;;;;;;;0.60;0.60;;;12.40;99.90;;;;;;4974278;28;20485;-81
2021/09/29 02:52:39;;;;;;;0.63;0.50;;;12.30;99.90;;;;;;4974152;28;20457;-81
2021/09/29 02:55:07;;;;;;;1.60;0.70;;;12.30;99.90;;;;;;4974084;28;20449;-81
2021/09/29 02:57:34;;;;;;;0.80;0.60;;;12.30;99.90;;;;;;4974308;28;20457;-82
2021/09/29 03:00:00;;;;;;;1.33;0.80;;;12.30;99.90;;;;;;4974264;28;20469;-81
2021/09/29 03:02:27;;;;;;;0.80;0.80;;;12.30;99.90;;;;;;4973999;28;20949;-82
2021/09/29 03:04:54;;;;;;;0.97;0.70;;;12.30;99.90;;;;;;4974283;28;20456;-82
2021/09/29 03:07:22;;;;;;;1.23;0.97;;;12.30;99.90;;;;;;4974288;28;20494;-82
2021/09/29 03:09:49;;;;;;;0.60;0.57;;;12.30;99.90;;;;;;4977329;28;21032;-82
2021/09/29 03:12:15;;;;;;;0.80;0.40;;;12.30;99.90;;;;;;4978040;28;20445;-82
2021/09/29 03:14:42;;;;;;;0.70;0.70;;;12.30;99.90;;;;;;4977692;28;20808;-82
2021/09/29 03:17:09;;;;;;;0.53;0.47;;;12.30;99.90;;;;;;4977986;28;20460;-82
2021/09/29 03:19:35;;;;;;;1.07;0.40;;;12.30;99.90;;;;;;4977813;28;20476;-82
2021/09/29 03:22:02;;;;;;;1.87;1.10;;;12.30;99.90;;;;;;4977598;28;20968;-82
2021/09/29 03:24:31;;;;;;;1.07;0.40;;;12.30;99.90;;;;;;4977837;28;20449;-85
2021/09/29 03:26:58;;;;;;;0.40;0.40;;;12.30;99.90;;;;;;4977589;28;20449;-86
2021/09/29 03:29:25;;;;;;;2.20;1.07;;;12.30;99.90;;;;;;4977634;28;20456;-86
2021/09/29 03:31:52;;;;;;;2.43;0.80;;;12.30;99.90;;;;;;4977442;28;20497;-85
2021/09/29 03:34:18;;;;;;;1.73;0.80;;;12.30;99.90;;;;;;4977621;28;20433;-86
2021/09/29 03:36:45;;;;;;;0.63;0.60;;;12.40;99.90;;;;;;4977814;28;20465;-86
2021/09/29 03:39:12;;;;;;;0.90;0.63;;;12.40;99.90;;;;;;4977773;28;20457;-86
2021/09/29 03:41:40;;;;;;;0.53;0.50;;;12.40;99.90;;;;;;4977696;28;20473;-86
2021/09/29 03:44:07;;;;;;;0.80;0.40;;;12.40;99.90;;;;;;4977693;28;20445;-85
2021/09/29 03:46:33;;;;;;;0.40;0.40;;;12.50;99.90;;;;;;4977614;28;20460;-86
2021/09/29 03:49:02;;;;;;;1.47;0.60;;;12.50;99.90;;;;;;4977692;28;20929;-86
2021/09/29 03:51:29;;;;;;;1.00;0.90;;;12.50;99.90;;;;;;4977412;28;20515;-86
2021/09/29 03:53:56;;;;;;;0.90;0.40;;;12.50;99.90;;;;;;4977607;28;20460;-86
2021/09/29 03:56:22;;;;;;;0.93;0.73;;;12.50;99.90;;;;;;4977144;28;20972;-86
2021/09/29 03:58:50;;;;;;;0.70;0.70;;;12.50;99.90;;;;;;4977395;28;20834;-86
2021/09/29 04:01:19;;;;;;;0.80;0.53;;;12.50;99.90;;;;;;4977205;28;20462;-86
2021/09/29 04:03:46;;;;;;;0.83;0.77;;;12.50;99.90;;;;;;4977770;28;20464;-86
2021/09/29 04:06:13;;;;;;;0.50;0.50;;;12.50;99.90;;;;;;4977189;28;20476;-86
2021/09/29 04:08:40;;;;;;;0.37;0.30;;;12.50;99.90;;;;;;4976946;28;20492;-85
2021/09/29 04:11:09;;;;;;;0.77;0.77;;;12.50;99.90;;;;;;4977090;28;20489;-86
2021/09/29 04:13:36;;;;;;;0.40;0.40;;;12.60;99.90;;;;;;4977160;28;20461;-86
2021/09/29 04:16:04;;;;;;;0.40;0.40;;;12.60;99.90;;;;;;4977015;28;20457;-85
2021/09/29 04:18:31;;;;;;;3.60;0.77;;;12.70;99.90;;;;;;4976935;28;20536;-86
2021/09/29 04:20:58;;;;;;;1.40;0.50;;;12.70;99.90;;;;;;4976976;28;20830;-86
2021/09/29 04:23:25;;;;;;;0.77;0.50;;;12.70;99.90;;;;;;4976999;28;20453;-86
2021/09/29 04:25:52;;;;;;;2.67;1.17;;;12.70;99.90;;;;;;4976864;28;20460;-86
2021/09/29 04:28:20;;;;;;;0.57;0.57;;;12.70;99.90;;;;;;4977092;28;20457;-86
2021/09/29 04:30:47;;;;;;;0.73;0.67;;;12.70;99.90;;;;;;4976879;28;20830;-87
2021/09/29 04:33:15;;;;;;;0.57;0.43;;;12.70;99.90;;;;;;4976669;28;20465;-86
2021/09/29 04:35:42;;;;;;;2.23;0.60;;;12.70;99.90;;;;;;4976669;28;20465;-80
2021/09/29 04:38:09;;;;;;;1.17;0.47;;;12.70;99.90;;;;;;4976487;28;20457;-80
2021/09/29 04:40:36;;;;;;;1.47;0.87;;;12.70;99.90;;;;;;4976087;28;20461;-80
2021/09/29 04:43:02;;;;;;;0.77;0.77;;;12.70;99.90;;;;;;4976386;28;20452;-80
2021/09/29 04:45:29;;;;;;;0.63;0.63;;;12.70;99.90;;;;;;4976302;28;20454;-80
2021/09/29 04:47:56;;;;;;;1.10;0.50;;;12.70;99.90;;;;;;4976259;28;20453;-79
2021/09/29 04:50:24;;;;;;;0.50;0.40;;;12.70;99.90;;;;;;4976148;28;20485;-80
2021/09/29 04:52:51;;;;;;;0.37;0.33;;;12.70;99.90;;;;;;4976267;28;20472;-79
2021/09/29 04:55:18;;;;;;;0.50;0.40;;;12.70;99.90;;;;;;4976161;28;20813;-80
2021/09/29 04:57:44;;;;;;;0.40;0.40;;;12.70;99.90;;;;;;4976120;28;20445;-80
2021/09/29 05:00:12;;;;;;;0.63;0.63;;;12.70;99.90;;;;;;4976025;28;20465;-80
2021/09/29 05:02:42;;;;;;;0.40;0.33;;;12.60;99.90;;;;;;4976049;28;20449;-80
2021/09/29 05:05:09;;;;;;;1.70;0.60;;;12.70;99.90;;;;;;4976264;28;20480;-80
2021/09/29 05:07:40;;;;;;;1.07;0.73;;;12.70;99.90;;;;;;4975589;28;20450;-80
2021/09/29 05:10:10;;;;;;;0.87;0.50;;;12.60;99.90;;;;;;4975354;28;20473;-80
2021/09/29 05:12:36;;;;;;;0.40;0.30;;;12.50;99.90;;;;;;4975761;28;20461;-80
2021/09/29 05:15:04;;;;;;;0.60;0.50;;;12.50;99.90;;;;;;4975470;28;20515;-81
2021/09/29 05:17:31;;;;;;;0.40;0.40;;;12.50;99.90;;;;;;4975744;28;20446;-82
2021/09/29 05:19:57;;;;;;;2.70;0.40;;;12.50;99.90;;;;;;4975656;28;20465;-81
2021/09/29 05:22:24;;;;;;;1.70;0.80;;;12.50;99.90;;;;;;4975621;28;20457;-82
2021/09/29 05:24:52;;;;;;;1.00;0.80;;;12.40;99.90;;;;;;4975262;28;20457;-82
2021/09/29 05:27:19;;;;;;;1.90;0.90;;;12.40;99.90;;;;;;4975545;28;20468;-82
2021/09/29 05:29:50;;;;;;;0.70;0.70;;;12.40;99.90;;;;;;4975412;28;20470;-81
2021/09/29 05:32:17;;;;;;;1.03;0.77;;;12.40;99.90;;;;;;4974692;28;20466;-82
2021/09/29 05:34:44;;;;;;;0.60;0.40;;;12.40;99.90;;;;;;4975415;28;20449;-81
2021/09/29 05:37:11;;;;;;;0.70;0.50;;;12.40;99.90;;;;;;4975385;28;20449;-81
2021/09/29 05:39:37;;;;;;;0.60;0.60;;;12.40;99.90;;;;;;4975016;28;20985;-81
2021/09/29 05:42:06;;;;;;;0.80;0.53;;;12.40;99.90;;;;;;4974918;28;20823;-81
2021/09/29 05:44:33;;;;;;;0.40;0.40;;;12.30;99.90;;;;;;4974842;28;20802;-81
2021/09/29 05:47:00;;;;;;;0.93;0.43;;;12.30;99.90;;;;;;4975229;28;20449;-81
2021/09/29 05:49:27;;;;;;;1.57;0.40;;;12.30;99.90;;;;;;4974784;28;20457;-81
2021/09/29 05:51:54;;;;;;;0.67;0.60;;;12.20;99.90;;;;;;4975040;28;20846;-81
2021/09/29 05:54:20;;;;;;;0.40;0.40;;;12.20;99.90;;;;;;4974806;28;20445;-81
2021/09/29 05:56:47;;;;;;;1.17;0.53;;;12.20;99.90;;;;;;4974733;28;20954;-81
2021/09/29 05:59:16;;;;;;;0.60;0.47;;;12.20;99.90;;;;;;4975140;28;20457;-81
2021/09/29 06:01:43;;;;;;;0.50;0.40;;;12.20;99.90;;;;;;4974676;28;20942;-81
2021/09/29 06:04:11;;;;;;;2.90;0.80;;;12.20;99.90;;;;;;4974919;28;20445;-81
2021/09/29 06:06:38;;;;;;;0.47;0.47;;;12.30;99.90;;;;;;4974879;28;20500;-81
2021/09/29 06:09:05;;;;;;;1.07;0.50;;;12.30;99.90;;;;;;4974543;28;20495;-82
2021/09/29 06:11:32;;;;;;;0.80;0.50;;;12.30;99.90;;;;;;4974390;28;20496;-82
2021/09/29 06:14:02;;;;;;;2.00;0.60;;;12.40;99.90;;;;;;4974768;28;20452;-81
2021/09/29 06:16:33;;;;;;;0.80;0.40;;;12.40;99.90;;;;;;4974831;28;20454;-82
2021/09/29 06:19:00;;;;;;;1.57;0.90;;;12.50;99.90;;;;;;4974895;28;20433;-81
2021/09/29 06:21:27;;;;;;;0.47;0.47;;;12.50;99.90;;;;;;4974436;28;20985;-81
2021/09/29 06:23:53;;;;;;;2.20;0.50;;;12.50;99.90;;;;;;4974664;28;20446;-81
2021/09/29 06:26:20;;;;;;;0.50;0.40;;;12.60;99.90;;;;;;4974716;28;20779;-81
2021/09/29 06:28:47;;;;;;;2.20;0.57;;;12.50;99.90;;;;;;4974373;28;20457;-81
2021/09/29 06:31:14;;;;;;;1.23;0.53;;;12.50;99.90;;;;;;4974502;28;20495;-81
2021/09/29 06:33:42;;;;;;;0.57;0.47;;;12.50;99.90;;;;;;4974485;28;20821;-81
2021/09/29 06:36:08;;;;;;;0.73;0.47;;;12.50;99.90;;;;;;4974585;28;20449;-81
2021/09/29 06:38:35;;;;;;;0.50;0.40;;;12.60;99.90;;;;;;4974529;28;20453;-81
2021/09/29 06:41:02;;;;;;;0.40;0.40;;;12.60;99.90;;;;;;4974149;28;20988;-81
2021/09/29 06:43:29;;;;;;;0.70;0.40;;;12.70;99.90;;;;;;4976181;28;20453;-82
2021/09/29 06:45:55;;;;;;;0.50;0.50;;;12.70;99.90;;;;;;4978513;28;20455;-81
2021/09/29 06:48:22;;;;;;;0.40;0.30;;;12.70;99.90;;;;;;4978476;28;20457;-82
2021/09/29 06:50:50;;;;;;;0.37;0.37;;;12.80;99.90;;;;;;4978327;28;20950;-81
2021/09/29 06:53:18;;;;;;;0.80;0.57;;;12.80;99.90;;;;;;4978366;28;20456;-82
2021/09/29 06:55:45;;;;;;;1.80;0.93;;;12.90;99.90;;;;;;4978389;28;20453;-82
2021/09/29 06:58:12;;;;;;;1.33;0.93;;;13.00;99.90;;;;;;4978327;28;20433;-82
2021/09/29 07:00:39;;;;;;;0.60;0.40;;;13.00;99.90;;;;;;4978172;28;20480;-82
2021/09/29 07:03:06;;;;;;;0.40;0.40;;;13.10;99.90;;;;;;4978213;28;20460;-82
2021/09/29 07:05:32;;;;;;;0.40;0.30;;;13.10;99.90;;;;;;4977892;28;20453;-81
2021/09/29 07:08:01;;;;;;;0.70;0.50;;;13.10;99.90;;;;;;4978135;28;20453;-86
2021/09/29 07:10:28;;;;;;;0.50;0.40;;;13.10;99.90;;;;;;4977851;28;20488;-85
2021/09/29 07:12:57;;;;;;;0.40;0.40;;;13.20;99.90;;;;;;4978155;28;20527;-85
2021/09/29 07:15:25;;;;;;;0.43;0.37;;;13.40;99.90;;;;;;4978160;28;20453;-86
2021/09/29 07:17:57;;;;;;;0.83;0.50;;;13.40;99.90;;;;;;4978164;28;20437;-85
2021/09/29 07:20:24;;;;;;;0.50;0.40;;;13.60;99.90;;;;;;4977906;28;20527;-85
2021/09/29 07:22:51;;;;;;;0.50;0.50;;;13.70;99.90;;;;;;4977859;28;20940;-86
2021/09/29 07:25:20;;;;;;;1.33;0.50;;;13.80;99.90;;;;;;4977747;28;20453;-85
2021/09/29 07:27:46;;;;;;;0.40;0.40;;;14.00;99.90;;;;;;4977825;28;20449;-85
2021/09/29 07:30:13;;;;;;;0.40;0.40;;;14.10;99.90;;;;;;4977987;28;20469;-86
2021/09/29 07:32:40;;;;;;;0.70;0.30;;;14.10;99.90;;;;;;4977675;28;20493;-82
2021/09/29 07:35:08;;;;;;;0.40;0.30;;;14.10;99.90;;;;;;4977718;28;20457;-85
2021/09/29 07:37:35;;;;;;;0.40;0.30;;;14.10;99.90;;;;;;4977885;28;20460;-86
2021/09/29 07:40:01;;;;;;;0.40;0.40;;;14.10;99.90;;;;;;4977747;28;20484;-86
2021/09/29 07:42:29;;;;;;;0.50;0.50;;;14.10;99.90;;;;;;4977819;28;20437;-86
2021/09/29 07:44:56;;;;;;;0.30;0.30;;;14.20;99.90;;;;;;4977561;28;20464;-86
2021/09/29 07:47:23;;;;;;;0.37;0.37;;;14.30;99.90;;;;;;4977806;28;20456;-86
2021/09/29 07:49:50;;;;;;;0.33;0.30;;;14.30;99.90;;;;;;4978265;28;20484;-86
2021/09/29 07:52:16;;;;;;;0.40;0.40;;;14.40;99.90;;;;;;4977549;28;20827;-87
2021/09/29 07:54:43;;;;;;;1.33;0.40;;;14.50;99.90;;;;;;4977333;28;20444;-86
2021/09/29 07:57:10;;;;;;;0.50;0.40;;;14.60;99.90;;;;;;4977472;28;20961;-86
2021/09/29 07:59:38;;;;;;;1.13;0.50;;;14.60;99.90;;;;;;4978225;28;20449;-86
2021/09/29 08:02:05;;;;;;;0.50;0.40;;;14.70;99.90;;;;;;4977567;28;20822;-86
2021/09/29 08:04:32;;;;;;;0.40;0.30;;;14.70;99.90;;;;;;4977322;28;20458;-87
2021/09/29 08:06:59;;;;;;;1.90;0.57;;;14.80;99.90;;;;;;4977720;28;20454;-86
2021/09/29 08:09:27;;;;;;;0.40;0.40;;;15.00;99.90;;;;;;4977135;28;20528;-86
2021/09/29 08:11:54;;;;;;;0.40;0.30;;;15.10;99.90;;;;;;4977236;28;20485;-87
2021/09/29 08:14:20;;;;;;;0.50;0.30;;;15.20;99.90;;;;;;4977320;28;20453;-87
2021/09/29 08:16:49;;;;;;;1.10;0.30;;;15.40;99.90;;;;;;4977532;28;20449;-87
2021/09/29 08:19:16;;;;;;;0.40;0.40;;;15.50;99.90;;;;;;4977163;28;20438;-87
2021/09/29 08:21:45;;;;;;;0.40;0.40;;;15.70;99.90;;;;;;4978138;28;20452;-87
2021/09/29 08:24:14;;;;;;;0.40;0.30;;;15.80;99.90;;;;;;4981647;28;20450;-88
2021/09/29 08:32:28;;;;;;;0.40;0.30;;;16.00;99.90;;;;;;4977224;28;20969;-89
2021/09/29 08:34:58;;;;;;;0.60;0.60;;;16.10;99.90;;;;;;4977373;28;20438;-89
2021/09/29 08:37:36;;;;;;;1.00;0.40;;;16.30;99.90;;;;;;4977532;28;20532;-89
2021/09/29 08:40:11;;;;;;;0.40;0.30;;;16.50;99.90;;;;;;4977498;28;20465;-89
2021/09/29 08:42:45;;;;;;;0.40;0.40;;;16.70;99.90;;;;;;4977058;28;20980;-89
2021/09/29 08:45:16;;;;;;;1.50;0.43;;;16.90;99.90;;;;;;4977727;28;20438;-89
2021/09/29 08:47:51;;;;;;;2.93;0.50;;;16.90;99.90;;;;;;4977372;28;20438;-90
2021/09/29 08:50:24;;;;;;;0.63;0.63;;;17.10;99.90;;;;;;4977211;28;20485;-89
2021/09/29 08:55:46;;;;;;;0.40;0.30;;;17.60;99.90;;;;;;4977422;28;20429;-90
2021/09/29 09:14:58;;;;;;;0.40;0.30;;;19.30;99.90;;;;;;4975945;28;20433;-86
2021/09/29 09:17:28;;;;;;;0.40;0.40;;;19.00;99.90;;;;;;4975988;28;20448;-84
2021/09/29 09:20:08;;;;;;;0.40;0.40;;;18.60;99.90;;;;;;4975678;28;20528;-86
2021/09/29 09:22:35;;;;;;;0.40;0.30;;;18.60;99.90;;;;;;4975978;28;20437;-85
2021/09/29 09:25:03;;;;;;;0.40;0.40;;;18.40;99.90;;;;;;4975559;28;20457;-86
2021/09/29 09:27:38;;;;;;;0.40;0.30;;;18.40;99.90;;;;;;4976000;28;20441;-88
2021/09/29 09:30:06;;;;;;;0.50;0.50;;;18.40;99.90;;;;;;4975657;28;20551;-83
2021/09/29 09:32:42;;;;;;;0.30;0.30;;;18.30;99.90;;;;;;4975429;28;20481;-82
2021/09/29 09:35:13;;;;;;;0.40;0.40;;;18.30;99.90;;;;;;4975517;28;20441;-83
2021/09/29 09:37:44;;;;;;;0.30;0.30;;;18.40;99.90;;;;;;4975197;28;20444;-82
2021/09/29 09:40:13;;;;;;;0.40;0.30;;;18.20;99.90;;;;;;4975398;28;20481;-82
2021/09/29 09:42:41;;;;;;;0.50;0.40;;;18.00;99.90;;;;;;4975373;28;20441;-81
2021/09/29 09:45:09;;;;;;;0.40;0.30;;;17.70;99.90;;;;;;4975315;28;20457;-82
2021/09/29 09:47:41;;;;;;;2.17;0.40;;;17.60;99.90;;;;;;4975291;28;20504;-82
2021/09/29 09:50:09;;;;;;;0.40;0.40;;;17.80;99.90;;;;;;4975160;28;20470;-83
2021/09/29 09:52:41;;;;;;;0.40;0.30;;;18.00;99.90;;;;;;4975115;28;20484;-82
2021/09/29 09:55:09;;;;;;;0.40;0.30;;;18.70;99.90;;;;;;4975192;28;20452;-82
2021/09/29 09:57:39;;;;;;;5.90;0.47;;;19.50;99.90;;;;;;4975058;28;20453;-82
2021/09/29 10:00:08;;;;;;;0.50;0.37;;;20.10;99.90;;;;;;4974993;28;20478;-81
2021/09/29 10:02:39;;;;;;;0.50;0.50;;;20.50;99.90;;;;;;4974698;28;20957;-82
2021/09/29 10:05:07;;;;;;;0.40;0.30;;;21.20;99.90;;;;;;4974976;28;20476;-82
2021/09/29 10:07:33;;;;;;;0.30;0.30;;;21.70;99.90;;;;;;4974911;28;20460;-82
2021/09/29 10:10:04;;;;;;;0.30;0.30;;;21.70;99.90;;;;;;4974496;28;20495;-82
2021/09/29 10:12:41;;;;;;;0.47;0.40;;;21.80;99.90;;;;;;4975058;28;20500;-82
2021/09/29 10:23:29;;;;;;;1.60;0.40;;;20.60;99.90;;;;;;4975163;28;21028;-82
2021/09/29 10:26:09;;;;;;;0.30;0.30;;;20.40;99.90;;;;;;4974469;28;20794;-83
2021/09/29 10:28:38;;;;;;;0.30;0.30;;;20.20;99.90;;;;;;4974740;28;20434;-82
2021/09/29 10:34:03;;;;;;;0.30;0.30;;;19.30;99.90;;;;;;4959177;28;21019;-82
2021/09/29 10:36:44;;;;;;;0.40;0.40;;;18.90;99.90;;;;;;4974333;28;20862;-83
2021/09/29 10:42:18;;;;;;;0.30;0.30;;;18.40;99.90;;;;;;4974662;28;20415;-81
2021/09/29 10:45:23;;;;;;;0.37;0.30;;;18.30;99.90;;;;;;4974587;28;20524;-82
2021/09/29 11:05:11;;;;;;;1.10;1.00;;;18.10;99.90;;;;;;4974192;28;20495;-82
2021/09/29 11:08:00;;;;;;;0.40;0.40;;;18.20;99.90;;;;;;4974259;28;20485;-81
2021/09/29 11:27:37;;;;;;;0.30;0.30;;;18.90;99.90;;;;;;5090776;28;20412;-82
2021/09/29 11:30:19;;;;;;;0.40;0.30;;;19.20;99.90;;;;;;5090288;28;20845;-81
2021/09/29 11:32:48;;;;;;;0.90;0.60;;;19.30;99.90;;;;;;5090588;28;20460;-81
2021/09/29 11:35:22;;;;;;;0.40;0.30;;;19.30;99.90;;;;;;5090512;28;20437;-81
2021/09/29 11:38:17;;;;;;;0.63;0.30;;;19.10;99.90;;;;;;5090538;28;20436;-82
2021/09/29 12:08:35;;;;;;;0.30;0.20;;;18.60;99.90;;;;;;5089761;28;20404;-81
2021/09/29 12:11:05;;;;;;;0.40;0.30;;;18.70;99.90;;;;;;5089481;28;20593;-81
2021/09/29 12:13:38;;;;;;;0.60;0.30;;;18.80;99.90;;;;;;5089790;28;20480;-81
2021/09/29 12:16:05;;;;;;;0.30;0.30;;;18.80;99.90;;;;;;5089546;28;20524;-81
2021/09/29 12:18:34;;;;;;;0.40;0.30;;;18.90;99.90;;;;;;5089760;28;20448;-81
2021/09/29 12:21:01;;;;;;;0.30;0.30;;;18.90;99.90;;;;;;5089319;28;21065;-82
2021/09/29 12:23:27;;;;;;;0.30;0.30;;;18.90;99.90;;;;;;5084041;28;20536;-82
2021/09/29 12:26:17;;;;;;;0.40;0.30;;;18.90;99.90;;;;;;5076179;28;20456;-82
2021/09/29 12:28:56;;;;;;;0.40;0.33;;;18.90;99.90;;;;;;5076251;28;20437;-81
2021/09/29 12:31:47;;;;;;;0.40;0.30;;;18.90;99.90;;;;;;5076605;28;20468;-81
2021/09/29 12:34:28;;;;;;;0.60;0.33;;;18.70;99.90;;;;;;5076060;28;20437;-81
2021/09/29 12:37:08;;;;;;;0.87;0.30;;;18.70;99.90;;;;;;5076606;28;20898;-81
2021/09/29 12:39:36;;;;;;;0.40;0.30;;;18.60;99.90;;;;;;5075834;28;20524;-81
2021/09/29 12:42:03;;;;;;;0.33;0.30;;;18.60;99.90;;;;;;5075807;28;20449;-81
2021/09/29 12:44:30;;;;;;;0.30;0.30;;;18.70;99.90;;;;;;5075778;28;20445;-81
2021/09/29 12:47:06;;;;;;;0.40;0.30;;;18.70;99.90;;;;;;5075722;28;20459;-82
2021/09/29 12:49:34;;;;;;;0.40;0.30;;;18.70;99.90;;;;;;5075675;28;20482;-81
2021/09/29 12:52:11;;;;;;;0.33;0.30;;;18.70;99.90;;;;;;5075719;28;20480;-82
2021/09/29 12:54:44;;;;;;;0.30;0.30;;;18.70;99.90;;;;;;5076209;28;20470;-81
2021/09/29 12:57:10;;;;;;;0.43;0.43;;;18.60;99.90;;;;;;5075368;28;20900;-82
2021/09/29 12:59:37;;;;;;;1.10;0.30;;;18.40;99.90;;;;;;5075435;28;20445;-82
2021/09/29 13:02:04;;;;;;;0.30;0.30;;;18.10;99.90;;;;;;5075177;28;20940;-82
2021/09/29 13:04:31;;;;;;;0.30;0.30;;;17.90;99.90;;;;;;5075425;28;20453;-82
2021/09/29 13:06:59;;;;;;;0.30;0.30;;;17.70;99.90;;;;;;5075314;28;20531;-82
2021/09/29 13:09:26;;;;;;;0.37;0.30;;;17.60;99.90;;;;;;5075203;28;20449;-82
2021/09/29 13:11:53;;;;;;;0.30;0.30;;;17.50;99.90;;;;;;5074896;28;20488;-87
2021/09/29 13:14:19;;;;;;;0.40;0.30;;;17.40;99.90;;;;;;5076016;28;20453;-87
2021/09/29 13:16:46;;;;;;;0.50;0.30;;;17.40;99.90;;;;;;5075961;28;20460;-87
2021/09/29 13:19:15;;;;;;;0.30;0.30;;;17.30;99.90;;;;;;5075966;28;20453;-87
2021/09/29 13:21:49;;;;;;;0.40;0.30;;;17.30;99.90;;;;;;5075759;28;20481;-87
2021/09/29 13:24:22;;;;;;;0.30;0.30;;;17.20;99.90;;;;;;5075416;28;20437;-86
2021/09/29 13:35:19;;;;;;;0.87;0.30;;;16.40;99.90;;;;;;5074002;28;20539;-83
2021/09/29 13:37:46;;;;;;;0.30;0.30;;;16.10;99.90;;;;;;5074792;28;20533;-83
2021/09/29 13:40:14;;;;;;;0.40;0.30;;;15.80;99.90;;;;;;5074616;28;20477;-83
2021/09/29 13:42:41;;;;;;;0.40;0.30;;;15.60;99.90;;;;;;5074674;28;20443;-84
2021/09/29 13:45:10;;;;;;;0.70;0.50;;;15.50;99.90;;;;;;5076413;28;20460;-83
2021/09/29 13:47:37;;;;;;;0.30;0.20;;;15.40;99.90;;;;;;5074553;28;20443;-83
2021/09/29 13:50:04;;;;;;;0.40;0.33;;;15.30;99.90;;;;;;5074485;28;20488;-83
2021/09/29 13:52:31;;;;;;;0.57;0.57;;;15.20;99.90;;;;;;5074416;28;20480;-82
2021/09/29 13:55:00;;;;;;;0.30;0.30;;;15.10;99.90;;;;;;5074459;28;20449;-78
2021/09/29 13:57:32;;;;;;;0.40;0.30;;;15.00;99.90;;;;;;5074068;28;20452;-78
2021/09/29 14:00:06;;;;;;;0.40;0.30;;;15.00;99.90;;;;;;5074282;28;20479;-77
2021/09/29 14:30:03;;;;;;;0.30;0.30;;;14.00;99.90;;;;;;5073587;28;20542;-79
2021/09/29 14:32:32;;;;;;;0.60;0.30;;;13.90;99.90;;;;;;5073709;28;20476;-79
2021/09/29 14:34:59;;;;;;;0.30;0.20;;;13.90;99.90;;;;;;5073735;28;20483;-79
2021/09/29 14:37:26;;;;;;;0.30;0.20;;;13.80;99.90;;;;;;5073678;28;20445;-78
2021/09/29 14:39:52;;;;;;;0.30;0.30;;;13.80;99.90;;;;;;5073670;28;20469;-78
2021/09/29 14:42:19;;;;;;;0.40;0.37;;;13.80;99.90;;;;;;5073652;28;20445;-78
2021/09/29 14:44:46;;;;;;;0.30;0.23;;;13.70;99.90;;;;;;5073295;28;20995;-78
2021/09/29 14:47:14;;;;;;;0.30;0.20;;;13.50;99.90;;;;;;5073351;28;20459;-78
2021/09/29 14:49:42;;;;;;;0.30;0.30;;;13.40;99.90;;;;;;5073485;28;20468;-79
2021/09/29 14:52:10;;;;;;;0.50;0.30;;;13.30;99.90;;;;;;5073438;28;20444;-83
2021/09/29 14:54:37;;;;;;;0.30;0.20;;;13.20;99.90;;;;;;5073480;28;20542;-81
2021/09/29 14:57:10;;;;;;;0.30;0.20;;;13.10;99.90;;;;;;5073460;28;20451;-82
2021/09/29 14:59:37;;;;;;;0.30;0.30;;;13.10;99.90;;;;;;5073416;28;20480;-82
2021/09/29 15:02:04;;;;;;;0.37;0.30;;;13.10;99.90;;;;;;5073459;28;20448;-79
2021/09/29 15:04:32;;;;;;;0.30;0.20;;;13.10;99.90;;;;;;5073357;28;20456;-78
2021/09/29 15:06:59;;;;;;;0.30;0.20;;;13.00;99.90;;;;;;5073362;28;20464;-78
2021/09/29 15:09:26;;;;;;;0.30;0.30;;;13.00;99.90;;;;;;5073231;28;20457;-78
2021/09/29 15:11:52;;;;;;;0.30;0.23;;;12.90;99.90;;;;;;5073047;28;20503;-77
2021/09/29 15:14:25;;;;;;;0.50;0.50;;;12.90;99.90;;;;;;5073210;28;20477;-77